Brookings, SD (57006)

4:31 AM CST on February 08, 2016 (GMT -0600)
Neighborhood | | Change Station
CLOSE
Current Station
Personal Weather Station
Location: Brookings, SD
Elevation: 1627 ft
Nearby Weather Stations
Active Advisory: Winter Weather Advisory

Elev 1627 ft 44.29 °N, 96.78 °W | Updated 2 minutes ago

Light Snow
Light Snow
19.6 °F
Feels Like 13 °F
N
4.3
Wind Variable Wind from WSW
Gusts 12.0 mph

Today
High -- | Low -- °F
--% Chance of Precip.
Yesterday
High -- | Low -- °F
Precip. -- in
Pressure 30.07 in
Visibility 7.0 miles
Clouds Overcast 2200 ft
Windchill 13 °F
Dew Point 16 °F
Humidity 86%
Rainfall 0.00 in
Snow Depth Not available.
7:37 AM 5:46 PM
Waning Crescent, 0% visible
METAR KBKX 080956Z AUTO 34026G32KT 7SM -SN OVC022 M08/M11 A2995 RMK AO2 PK WND 34038/0917 SLP182 P0000 T10781106 FZRANO
Pressure 30.07 in
Visibility 7.0 miles
Clouds Overcast 2200 ft
Windchill 13 °F
Dew Point 16 °F
Humidity 86%
Rainfall 0.00 in
Snow Depth Not available.
7:37 AM 5:46 PM
Waning Crescent, 0% visible
METAR KBKX 080956Z AUTO 34026G32KT 7SM -SN OVC022 M08/M11 A2995 RMK AO2 PK WND 34038/0917 SLP182 P0000 T10781106 FZRANO

10-Day Weather Forecast

Almanac

Astronomy

Feb. 08, 2016 Rise Set
Actual Time
Civil Twilight
Nautical Twilight
Astronomical Twilight
Moon
Length of Visible Light
Length of Day
Tomorrow will be .
, % of the Moon is Illuminated

Today's Extremes

State Highs State Lows

Community

WunderPhotos

Upload Photos

1,891,420 photos uploaded!

WunderBlog® & News

Nearby

Air Quality

  Air Quality AQ Index Pollutant
Not available.

Snow Depth

Station Depth Elevation

Earthquake Activity

City Distance Mag. Time & Date
Minimum magnitude displayed is 2.5.

Coastal Water Temperatures

Place Temperature

Stations

Nearby Weather Stations

Station Location Temp. Windchill Dew Point Humidity Wind Precip. Elev Updated Type
                   

Watches & Warnings

Winter Weather Advisory
Issued: 4:00 AM CST Feb. 8, 2016 – National Weather Service

... Winter Weather Advisory in effect until noon CST today...
... Blizzard Warning is cancelled...

The National Weather Service in Sioux Falls has issued a Winter
Weather Advisory for blowing snow... which is in effect until noon
CST today. The Blizzard Warning has been cancelled.

* Timing... light snow will gradually taper off through the
morning... but areas of blowing snow will continue.

* Accumulations... little additional accumulation is expected
today.

* Wind and visibility... northwest winds of 25 to 35 mph with gusts
to 45 mph will persist this morning. With a half an inch of new
snow in many locations... this will create periods of reduced
visibility and slick driving conditions.

Precautionary/preparedness actions...

A Winter Weather Advisory for blowing snow means that
visibilities will be limited due to strong winds blowing snow
around. Use caution when traveling... especially in open areas.